Time;durP1;ratioP1;P1;durP2;ratioP2;P2;SDS_P1;SDS_P2;PMS_P1;PMS_P2;Temp;Humidity;BMP_temperature;BMP_pressure;BME280_temperature;BME280_humidity;BME280_pressure;Samples;Min_cycle;Max_cycle;Signal;HPM_P1;HPM_P2
2023/12/10 00:00:58;;;;;;;11.93;1.80;;;8.70;99.90;;;;;;5095991;28;20044;-57
2023/12/10 00:03:24;;;;;;;13.93;1.83;;;8.70;99.90;;;;;;5095725;28;20503;-58
2023/12/10 00:05:51;;;;;;;13.17;1.83;;;8.70;99.90;;;;;;5095964;28;20047;-58
2023/12/10 00:08:17;;;;;;;10.60;1.80;;;8.70;99.90;;;;;;5096354;28;20306;-57
2023/12/10 00:10:42;;;;;;;15.63;1.80;;;8.70;99.90;;;;;;5095846;28;20406;-57
2023/12/10 00:13:11;;;;;;;12.07;1.57;;;8.70;99.90;;;;;;5096327;28;20044;-57
2023/12/10 00:15:37;;;;;;;12.45;2.33;;;8.70;99.90;;;;;;5095710;28;20040;-57
2023/12/10 00:18:04;;;;;;;16.60;1.83;;;8.70;99.90;;;;;;5095600;28;20055;-57
2023/12/10 00:20:30;;;;;;;12.15;1.70;;;8.70;99.90;;;;;;5095502;28;20372;-57
2023/12/10 00:22:55;;;;;;;10.23;1.43;;;8.70;99.90;;;;;;5095635;28;20113;-57
2023/12/10 00:25:21;;;;;;;8.87;2.03;;;8.70;99.90;;;;;;5095753;28;20043;-57
2023/12/10 00:27:47;;;;;;;16.17;1.67;;;8.70;99.90;;;;;;5095425;28;20043;-57
2023/12/10 00:30:13;;;;;;;10.37;2.10;;;8.70;99.90;;;;;;5095692;28;20044;-56
2023/12/10 00:32:39;;;;;;;7.27;1.20;;;8.70;99.90;;;;;;5095405;28;20055;-57
2023/12/10 00:35:06;;;;;;;14.45;1.75;;;8.70;99.90;;;;;;5095256;28;20048;-57
2023/12/10 00:37:32;;;;;;;12.13;1.92;;;8.80;99.90;;;;;;5095426;28;20479;-57
2023/12/10 00:39:59;;;;;;;12.93;2.07;;;8.80;99.90;;;;;;5095240;28;20048;-57
2023/12/10 00:42:25;;;;;;;;;;;8.80;99.90;;;;;;5095629;28;20079;-57
2023/12/10 00:44:50;;;;;;;8.75;1.40;;;8.80;99.90;;;;;;5095285;28;19982;-57
2023/12/10 00:47:16;;;;;;;16.43;1.40;;;8.80;99.90;;;;;;5095157;28;20082;-56
2023/12/10 00:49:42;;;;;;;19.57;2.10;;;8.80;99.90;;;;;;5094776;28;20043;-57
2023/12/10 00:52:07;;;;;;;15.17;1.83;;;8.80;99.90;;;;;;5095151;28;20499;-57
2023/12/10 00:54:33;;;;;;;15.97;2.10;;;8.80;99.90;;;;;;5095126;28;20055;-57
2023/12/10 00:57:00;;;;;;;11.20;1.57;;;8.80;99.90;;;;;;5094946;28;20048;-57
2023/12/10 00:59:26;;;;;;;11.77;1.80;;;8.80;99.90;;;;;;5094775;28;20105;-57
2023/12/10 01:01:52;;;;;;;12.70;1.50;;;8.80;99.90;;;;;;5094771;28;20055;-57
2023/12/10 01:04:18;;;;;;;12.45;1.52;;;8.80;99.90;;;;;;5094570;28;20087;-57
2023/12/10 01:06:45;;;;;;;12.93;1.47;;;8.80;99.90;;;;;;5094322;28;20144;-57
2023/12/10 01:09:11;;;;;;;9.68;1.13;;;8.80;99.90;;;;;;5094563;28;20834;-57
2023/12/10 01:11:37;;;;;;;9.38;2.22;;;8.80;99.90;;;;;;5094753;28;20040;-56
2023/12/10 01:14:03;;;;;;;11.60;1.53;;;8.70;99.90;;;;;;5094666;28;20036;-58
2023/12/10 01:16:29;;;;;;;10.95;0.85;;;8.70;99.90;;;;;;5094629;28;20052;-57
2023/12/10 01:18:55;;;;;;;8.43;1.20;;;8.70;99.90;;;;;;5093018;28;20479;-57
2023/12/10 01:21:21;;;;;;;11.65;1.50;;;8.70;99.90;;;;;;5094362;28;20101;-57
2023/12/10 01:23:49;;;;;;;8.13;1.50;;;8.60;99.90;;;;;;5094048;28;20048;-57
2023/12/10 01:26:15;;;;;;;8.02;1.33;;;8.60;99.90;;;;;;5092802;28;20040;-57
2023/12/10 01:28:40;;;;;;;10.03;1.40;;;8.60;99.90;;;;;;5092426;28;20561;-57
2023/12/10 01:31:06;;;;;;;12.73;1.57;;;8.50;99.90;;;;;;5094322;28;20091;-57
2023/12/10 01:33:32;;;;;;;11.67;1.57;;;8.50;99.90;;;;;;5093861;28;20402;-57
2023/12/10 01:35:57;;;;;;;10.43;1.43;;;8.50;99.90;;;;;;5093825;28;20131;-57
2023/12/10 01:38:23;;;;;;;11.43;1.60;;;8.40;99.90;;;;;;5093651;28;20051;-56
2023/12/10 01:40:49;;;;;;;12.90;1.87;;;8.40;99.90;;;;;;5094173;28;20051;-57
2023/12/10 01:43:17;;;;;;;15.97;1.80;;;8.40;99.90;;;;;;5093894;28;20391;-57
2023/12/10 01:45:54;;;;;;;10.02;1.20;;;8.30;99.90;;;;;;5093518;28;20530;-57
2023/12/10 01:48:21;;;;;;;11.90;1.52;;;8.30;99.90;;;;;;5093836;28;20040;-57
2023/12/10 01:50:47;;;;;;;12.50;1.77;;;8.30;99.90;;;;;;5093087;28;20497;-57
2023/12/10 01:53:14;;;;;;;8.82;1.33;;;8.30;99.90;;;;;;5093773;28;20117;-57
2023/12/10 01:55:41;;;;;;;9.45;1.33;;;8.20;99.90;;;;;;5093677;28;20052;-57
2023/12/10 01:58:07;;;;;;;;;;;8.20;99.90;;;;;;5094280;28;20405;-57
2023/12/10 02:00:33;;;;;;;12.98;1.95;;;8.20;99.90;;;;;;5093824;28;20018;-57
2023/12/10 02:03:03;;;;;;;8.20;1.70;;;8.20;99.90;;;;;;5093685;28;20047;-57
2023/12/10 02:05:29;;;;;;;9.68;1.30;;;8.20;99.90;;;;;;5093888;28;20417;-57
2023/12/10 02:07:55;;;;;;;9.00;1.33;;;8.10;99.90;;;;;;5093587;28;20052;-58
2023/12/10 02:10:20;;;;;;;10.63;2.07;;;8.10;99.90;;;;;;5093626;28;20134;-57
2023/12/10 02:12:48;;;;;;;8.50;1.47;;;8.10;99.90;;;;;;5093683;28;20079;-58
2023/12/10 02:15:18;;;;;;;6.85;1.27;;;8.10;99.90;;;;;;5093543;28;20459;-57
2023/12/10 02:17:45;;;;;;;11.90;2.10;;;8.10;99.90;;;;;;5093706;28;20499;-57
2023/12/10 02:20:14;;;;;;;12.10;1.65;;;8.10;99.90;;;;;;5093527;28;20560;-58
2023/12/10 02:23:17;;;;;;;10.70;1.67;;;8.00;99.90;;;;;;5093873;28;20046;-58
2023/12/10 02:25:43;;;;;;;10.20;2.00;;;8.00;99.90;;;;;;5093567;28;20429;-58
2023/12/10 02:28:10;;;;;;;10.02;1.23;;;8.00;99.90;;;;;;5093703;28;20044;-57
2023/12/10 02:30:36;;;;;;;9.60;1.17;;;8.00;99.90;;;;;;5094273;28;20122;-57
2023/12/10 02:33:02;;;;;;;8.73;1.70;;;8.00;99.90;;;;;;5097699;28;20076;-57
2023/12/10 02:35:28;;;;;;;9.85;1.45;;;8.00;99.90;;;;;;5097552;28;20270;-57
2023/12/10 02:37:54;;;;;;;7.65;1.77;;;8.00;99.90;;;;;;5097681;28;20092;-57
2023/12/10 02:40:20;;;;;;;8.85;1.10;;;8.00;99.90;;;;;;5096254;28;20131;-57
2023/12/10 02:42:47;;;;;;;10.67;1.23;;;8.00;99.90;;;;;;5097572;28;20435;-57
2023/12/10 02:45:13;;;;;;;13.15;1.30;;;8.00;99.90;;;;;;5097503;28;20395;-57
2023/12/10 02:47:39;;;;;;;7.00;1.15;;;8.00;99.90;;;;;;5097237;28;20479;-57
2023/12/10 02:50:06;;;;;;;9.45;1.80;;;8.00;99.90;;;;;;5097493;28;20052;-57
2023/12/10 02:52:33;;;;;;;;;;;8.00;99.90;;;;;;5097716;28;20050;-57
2023/12/10 02:54:59;;;;;;;7.77;1.30;;;8.00;99.90;;;;;;5097052;28;19927;-57
2023/12/10 02:57:25;;;;;;;9.90;0.93;;;8.10;99.90;;;;;;5097291;28;20278;-57
2023/12/10 02:59:50;;;;;;;10.80;1.73;;;8.10;99.90;;;;;;5097360;28;20399;-57
2023/12/10 03:02:16;;;;;;;8.87;1.17;;;8.10;99.90;;;;;;5096243;28;20134;-58
2023/12/10 03:04:42;;;;;;;7.13;1.07;;;8.00;99.90;;;;;;5097263;28;20044;-58
2023/12/10 03:07:07;;;;;;;7.23;1.40;;;8.10;99.90;;;;;;5097101;28;20036;-58
2023/12/10 03:09:33;;;;;;;11.07;1.50;;;8.00;99.90;;;;;;5095443;28;20054;-57
2023/12/10 03:11:59;;;;;;;7.87;1.00;;;8.00;99.90;;;;;;5096804;28;20445;-57
2023/12/10 03:14:24;;;;;;;9.07;1.17;;;8.00;99.90;;;;;;5095997;28;20108;-56
2023/12/10 03:16:50;;;;;;;8.13;1.87;;;8.00;99.90;;;;;;5096915;28;20048;-57
2023/12/10 03:19:16;;;;;;;8.50;0.97;;;8.00;99.90;;;;;;5096774;28;20036;-57
2023/12/10 03:21:41;;;;;;;10.37;2.37;;;8.00;99.90;;;;;;5096642;28;20405;-57
2023/12/10 03:24:07;;;;;;;7.80;1.47;;;8.00;99.90;;;;;;5096604;28;20048;-57
2023/12/10 03:26:33;;;;;;;6.57;1.63;;;8.00;99.90;;;;;;5096799;28;20126;-57
2023/12/10 03:28:58;;;;;;;12.37;0.97;;;8.00;99.90;;;;;;5096411;28;20360;-57
2023/12/10 03:31:24;;;;;;;9.03;1.00;;;8.00;99.90;;;;;;5096683;28;20093;-57
2023/12/10 03:33:50;;;;;;;3.67;0.93;;;8.00;99.90;;;;;;5096617;28;20478;-57
2023/12/10 03:36:17;;;;;;;5.55;0.75;;;7.90;99.90;;;;;;5096447;28;20521;-57
2023/12/10 03:38:43;;;;;;;6.95;1.10;;;7.90;99.90;;;;;;5096271;28;20048;-57
2023/12/10 03:41:09;;;;;;;8.53;1.27;;;7.90;99.90;;;;;;5096415;28;20055;-57
2023/12/10 03:43:34;;;;;;;8.40;1.00;;;7.90;99.90;;;;;;5095654;28;20059;-57
2023/12/10 03:46:00;;;;;;;5.23;1.23;;;7.90;99.90;;;;;;5096335;28;20040;-57
2023/12/10 03:48:26;;;;;;;6.27;0.93;;;7.90;99.90;;;;;;5096026;28;20173;-57
2023/12/10 03:50:51;;;;;;;7.57;1.43;;;7.90;99.90;;;;;;5095238;28;20044;-57
2023/12/10 03:53:17;;;;;;;7.33;1.47;;;7.90;99.90;;;;;;5096041;28;20549;-57
2023/12/10 03:55:43;;;;;;;9.93;1.37;;;7.90;99.90;;;;;;5096167;28;20093;-57
2023/12/10 03:58:09;;;;;;;3.03;0.60;;;7.90;99.90;;;;;;5095935;28;20479;-56
2023/12/10 04:00:34;;;;;;;6.63;0.90;;;7.90;99.90;;;;;;5096097;28;20044;-56
2023/12/10 04:03:00;;;;;;;3.47;0.47;;;7.90;99.90;;;;;;5094683;28;20040;-53
2023/12/10 04:05:25;;;;;;;2.80;0.70;;;7.90;99.90;;;;;;5096025;28;20104;-56
2023/12/10 04:07:51;;;;;;;5.50;0.60;;;7.90;99.90;;;;;;5095644;28;20078;-55
2023/12/10 04:10:17;;;;;;;3.60;0.70;;;7.90;99.90;;;;;;5095874;28;20048;-54
2023/12/10 04:12:43;;;;;;;2.73;0.53;;;7.90;99.90;;;;;;5096057;28;20048;-54
2023/12/10 04:15:09;;;;;;;1.20;0.20;;;7.90;99.90;;;;;;5096105;28;20048;-56
2023/12/10 04:17:35;;;;;;;7.67;0.60;;;7.90;99.90;;;;;;5095810;28;20130;-56
2023/12/10 04:20:00;;;;;;;4.57;0.40;;;7.90;99.90;;;;;;5095592;28;20304;-55
2023/12/10 04:22:27;;;;;;;2.57;0.50;;;7.90;99.90;;;;;;5094589;28;20139;-55
2023/12/10 04:24:53;;;;;;;;;;;7.90;99.90;;;;;;5096338;28;20117;-54
2023/12/10 04:27:18;;;;;;;3.88;0.82;;;7.90;99.90;;;;;;5095534;28;20355;-52
2023/12/10 04:29:44;;;;;;;4.33;0.47;;;7.90;99.90;;;;;;5094535;28;20052;-52
2023/12/10 04:32:10;;;;;;;1.67;0.30;;;7.90;99.90;;;;;;5095565;28;20079;-54
2023/12/10 04:34:36;;;;;;;2.00;0.40;;;7.90;99.90;;;;;;5095330;28;20055;-55
2023/12/10 04:37:02;;;;;;;9.00;0.77;;;8.00;99.90;;;;;;5095188;28;20130;-54
2023/12/10 04:39:28;;;;;;;2.33;0.47;;;8.00;99.90;;;;;;5095303;28;20051;-49
2023/12/10 04:41:54;;;;;;;3.93;0.60;;;8.00;99.90;;;;;;5095229;28;20036;-50
2023/12/10 04:44:19;;;;;;;2.17;0.30;;;8.00;99.90;;;;;;5093994;28;20048;-54
2023/12/10 04:46:45;;;;;;;4.50;0.37;;;8.00;99.90;;;;;;5095211;28;20403;-56
2023/12/10 04:49:11;;;;;;;3.47;0.40;;;8.10;99.90;;;;;;5095117;28;20047;-56
2023/12/10 04:51:36;;;;;;;3.00;0.50;;;8.10;99.90;;;;;;5094893;28;20059;-53
2023/12/10 04:54:02;;;;;;;6.20;1.63;;;8.10;99.90;;;;;;5094586;28;20134;-52
2023/12/10 04:56:29;;;;;;;5.07;0.80;;;8.10;99.90;;;;;;5094776;28;20415;-51
2023/12/10 04:58:54;;;;;;;3.03;0.70;;;8.20;99.90;;;;;;5094974;28;20039;-53
2023/12/10 05:01:20;;;;;;;3.33;0.60;;;8.20;99.90;;;;;;5095028;28;20044;-53
2023/12/10 05:03:46;;;;;;;4.63;0.60;;;8.20;99.90;;;;;;5094851;28;20450;-57
2023/12/10 05:06:11;;;;;;;4.77;0.93;;;8.20;99.90;;;;;;5094819;28;20043;-51
2023/12/10 05:08:37;;;;;;;5.07;0.90;;;8.30;99.90;;;;;;5094458;28;20094;-53
2023/12/10 05:11:03;;;;;;;3.90;0.80;;;8.30;99.90;;;;;;5094683;28;20156;-51
2023/12/10 05:13:30;;;;;;;2.73;0.40;;;8.30;99.90;;;;;;5094659;28;20044;-56
2023/12/10 05:15:57;;;;;;;6.05;0.60;;;8.30;99.90;;;;;;5094504;28;20098;-52
2023/12/10 05:18:23;;;;;;;1.65;0.38;;;8.30;99.90;;;;;;5094425;28;20127;-54
2023/12/10 05:20:49;;;;;;;3.40;0.50;;;8.30;99.90;;;;;;5094324;28;20502;-55
2023/12/10 05:23:15;;;;;;;2.23;0.50;;;8.30;99.90;;;;;;5094555;28;20051;-55
2023/12/10 05:25:40;;;;;;;3.97;0.38;;;8.30;99.90;;;;;;5094461;28;20048;-54
2023/12/10 05:28:06;;;;;;;2.53;0.47;;;8.30;99.90;;;;;;5094725;28;20479;-55
2023/12/10 05:30:32;;;;;;;1.47;0.43;;;8.30;99.90;;;;;;5094510;28;20040;-56
2023/12/10 05:32:57;;;;;;;1.97;0.37;;;8.40;99.90;;;;;;5094272;28;20047;-56
2023/12/10 05:35:23;;;;;;;1.87;0.40;;;8.40;99.90;;;;;;5094035;28;20040;-56
2023/12/10 05:37:49;;;;;;;3.87;0.57;;;8.40;99.90;;;;;;5094758;28;20406;-56
2023/12/10 05:40:15;;;;;;;5.17;0.93;;;8.40;99.90;;;;;;5094864;28;20052;-54
2023/12/10 05:42:40;;;;;;;2.77;0.67;;;8.40;99.90;;;;;;5094024;28;20044;-52
2023/12/10 05:45:07;;;;;;;7.20;0.90;;;8.40;99.90;;;;;;5093999;28;20125;-57
2023/12/10 05:47:33;;;;;;;2.55;0.63;;;8.40;99.90;;;;;;5094113;28;20483;-58
2023/12/10 05:49:59;;;;;;;3.65;0.55;;;8.40;99.90;;;;;;5093997;28;20048;-57
2023/12/10 05:52:24;;;;;;;3.83;0.70;;;8.40;99.90;;;;;;5093928;28;20093;-57
2023/12/10 05:54:51;;;;;;;5.05;0.73;;;8.40;99.90;;;;;;5094034;28;20093;-56
2023/12/10 05:57:16;;;;;;;3.15;0.60;;;8.40;99.90;;;;;;5093917;28;20048;-58
2023/12/10 05:59:43;;;;;;;2.83;0.60;;;8.40;99.90;;;;;;5093834;28;20044;-55
2023/12/10 06:02:08;;;;;;;4.13;1.90;;;8.40;99.90;;;;;;5093874;28;20052;-57
2023/12/10 06:04:34;;;;;;;3.23;0.50;;;8.40;99.90;;;;;;5093730;28;20035;-56
2023/12/10 06:07:00;;;;;;;6.43;0.70;;;8.40;99.90;;;;;;5093250;28;20112;-56
2023/12/10 06:09:26;;;;;;;6.07;0.87;;;8.40;99.90;;;;;;5092226;28;20059;-57
2023/12/10 06:11:53;;;;;;;4.35;0.93;;;8.40;99.90;;;;;;5092896;28;20048;-55
2023/12/10 06:14:19;;;;;;;2.92;0.40;;;8.40;99.90;;;;;;5093969;28;20044;-56
2023/12/10 06:16:45;;;;;;;3.75;0.52;;;8.40;99.90;;;;;;5093903;28;20051;-58
2023/12/10 06:19:10;;;;;;;4.20;0.73;;;8.40;99.90;;;;;;5093468;28;20434;-54
2023/12/10 06:21:37;;;;;;;2.80;0.57;;;8.40;99.90;;;;;;5094089;28;20048;-55
2023/12/10 06:24:04;;;;;;;5.50;0.77;;;8.40;99.90;;;;;;5093661;28;20486;-56
2023/12/10 06:26:30;;;;;;;6.22;0.70;;;8.40;99.90;;;;;;5094015;28;20368;-56
2023/12/10 06:28:56;;;;;;;7.07;1.10;;;8.40;99.90;;;;;;5093360;28;20043;-55
2023/12/10 06:31:21;;;;;;;4.23;0.70;;;8.40;99.90;;;;;;5093520;28;20044;-55
2023/12/10 06:33:47;;;;;;;5.23;0.57;;;8.50;99.90;;;;;;5093403;28;20044;-57
2023/12/10 06:36:13;;;;;;;7.03;1.10;;;8.40;99.90;;;;;;5093766;28;20437;-57
2023/12/10 06:38:39;;;;;;;9.15;1.08;;;8.40;99.90;;;;;;5093276;28;20067;-56
2023/12/10 06:41:06;;;;;;;8.87;1.63;;;8.40;99.90;;;;;;5093545;28;20040;-54
2023/12/10 06:43:31;;;;;;;;;;;8.40;99.90;;;;;;5093980;28;20083;-56
2023/12/10 06:46:00;;;;;;;5.15;0.82;;;8.50;99.90;;;;;;5093467;28;19962;-56
2023/12/10 06:48:26;;;;;;;5.78;1.13;;;8.50;99.90;;;;;;5092181;28;20051;-57
2023/12/10 06:50:53;;;;;;;6.97;1.10;;;8.50;99.90;;;;;;5093511;28;20036;-57
2023/12/10 06:53:18;;;;;;;8.15;1.25;;;8.50;99.90;;;;;;5093436;28;20791;-57
2023/12/10 06:55:45;;;;;;;7.53;1.07;;;8.50;99.90;;;;;;5093400;28;20048;-56
2023/12/10 06:58:10;;;;;;;2.95;0.73;;;8.60;99.90;;;;;;5092313;28;20051;-57
2023/12/10 07:00:36;;;;;;;6.03;0.70;;;8.60;99.90;;;;;;5093448;28;20047;-56
2023/12/10 07:03:02;;;;;;;12.23;1.67;;;8.60;99.90;;;;;;5093089;28;20499;-56
2023/12/10 07:05:28;;;;;;;9.40;1.80;;;8.60;99.90;;;;;;5093405;28;20048;-56
2023/12/10 07:07:53;;;;;;;6.40;1.23;;;8.60;99.90;;;;;;5093156;28;20832;-56
2023/12/10 07:10:19;;;;;;;10.50;1.40;;;8.60;99.90;;;;;;5093521;28;20087;-56
2023/12/10 07:12:45;;;;;;;6.93;1.20;;;8.60;99.90;;;;;;5093160;28;20052;-57
2023/12/10 07:15:11;;;;;;;11.23;1.60;;;8.60;99.90;;;;;;5093215;28;20044;-57
2023/12/10 07:17:37;;;;;;;8.97;1.10;;;8.60;99.90;;;;;;5093684;28;20406;-56
2023/12/10 07:20:03;;;;;;;7.38;1.45;;;8.60;99.90;;;;;;5096616;28;20044;-56
2023/12/10 07:22:28;;;;;;;8.80;1.55;;;8.60;99.90;;;;;;5096831;28;20487;-59
2023/12/10 07:24:54;;;;;;;11.17;1.20;;;8.60;99.90;;;;;;5096875;28;20051;-55
2023/12/10 07:27:20;;;;;;;8.77;1.27;;;8.60;99.90;;;;;;5096793;28;20490;-58
2023/12/10 07:29:45;;;;;;;11.97;1.50;;;8.60;99.90;;;;;;5096649;28;20054;-57
2023/12/10 07:32:11;;;;;;;8.80;1.73;;;8.60;99.90;;;;;;5096674;28;20402;-56
2023/12/10 07:34:37;;;;;;;6.87;0.83;;;8.60;99.90;;;;;;5096363;28;20112;-59
2023/12/10 07:37:03;;;;;;;5.87;1.80;;;8.60;99.90;;;;;;5096754;28;20547;-56
2023/12/10 07:39:29;;;;;;;10.13;1.10;;;8.60;99.90;;;;;;5096499;28;20112;-56
2023/12/10 07:41:55;;;;;;;5.43;1.23;;;8.60;99.90;;;;;;5096629;28;20083;-57
2023/12/10 07:44:20;;;;;;;5.70;0.80;;;8.70;99.90;;;;;;5096302;28;20122;-56
2023/12/10 07:46:46;;;;;;;7.25;1.80;;;8.70;99.90;;;;;;5096260;28;20055;-57
2023/12/10 07:49:12;;;;;;;5.83;0.93;;;8.70;99.90;;;;;;5096134;28;20046;-57
2023/12/10 07:51:37;;;;;;;4.40;0.90;;;8.70;99.90;;;;;;5096432;28;20055;-58
2023/12/10 07:54:03;;;;;;;6.07;0.83;;;8.70;99.90;;;;;;5096292;28;20074;-59
2023/12/10 07:56:30;;;;;;;5.83;1.17;;;8.70;99.90;;;;;;5096223;28;20036;-60
2023/12/10 07:58:56;;;;;;;8.52;1.30;;;8.70;99.90;;;;;;5096024;28;20127;-57
2023/12/10 08:01:22;;;;;;;8.67;1.17;;;8.70;99.90;;;;;;5095990;28;20119;-57
2023/12/10 08:03:47;;;;;;;5.93;1.40;;;8.80;99.90;;;;;;5095959;28;20043;-57
2023/12/10 08:06:13;;;;;;;7.20;1.03;;;8.80;99.90;;;;;;5096068;28;20040;-57
2023/12/10 08:08:39;;;;;;;6.57;0.60;;;8.80;99.90;;;;;;5095734;28;20068;-59
2023/12/10 08:11:05;;;;;;;5.57;0.50;;;8.80;99.90;;;;;;5095951;28;20040;-57
2023/12/10 08:13:31;;;;;;;5.50;0.65;;;8.70;99.90;;;;;;5095991;28;20048;-60
2023/12/10 08:15:57;;;;;;;5.20;0.43;;;8.70;99.90;;;;;;5095685;28;20067;-57
2023/12/10 08:18:24;;;;;;;6.63;0.90;;;8.70;99.90;;;;;;5095509;28;20592;-56
2023/12/10 08:20:50;;;;;;;;;;;8.70;99.90;;;;;;5096099;28;20055;-56
2023/12/10 08:23:15;;;;;;;4.40;0.70;;;8.70;99.90;;;;;;5095142;28;19924;-56
2023/12/10 08:25:41;;;;;;;7.30;1.13;;;8.70;99.90;;;;;;5095763;28;20048;-59
2023/12/10 08:28:07;;;;;;;4.57;0.60;;;8.70;99.90;;;;;;5094408;28;20044;-57
2023/12/10 08:30:33;;;;;;;7.43;1.48;;;8.70;99.90;;;;;;5095305;28;20044;-57
2023/12/10 08:32:59;;;;;;;4.60;1.30;;;8.70;99.90;;;;;;5095419;28;20051;-56
2023/12/10 08:35:25;;;;;;;4.20;0.70;;;8.70;99.90;;;;;;5095412;28;20051;-59
2023/12/10 08:37:50;;;;;;;3.92;0.70;;;8.70;99.90;;;;;;5095358;28;20048;-58
2023/12/10 08:40:16;;;;;;;3.47;0.77;;;8.70;99.90;;;;;;5095314;28;20048;-56
2023/12/10 08:42:42;;;;;;;3.95;0.50;;;8.70;99.90;;;;;;5095206;28;20048;-57
2023/12/10 08:45:08;;;;;;;3.80;0.50;;;8.70;99.90;;;;;;5095278;28;20047;-61
2023/12/10 08:47:35;;;;;;;7.75;0.90;;;8.70;99.90;;;;;;5095117;28;20044;-57
2023/12/10 08:50:02;;;;;;;4.03;0.50;;;8.70;99.90;;;;;;5095073;28;20132;-56
2023/12/10 08:52:28;;;;;;;8.90;1.15;;;8.70;99.90;;;;;;5095075;28;20056;-59
2023/12/10 08:54:55;;;;;;;4.93;0.73;;;8.70;99.90;;;;;;5094957;28;20071;-57
2023/12/10 08:57:23;;;;;;;5.03;1.60;;;8.70;99.90;;;;;;5094870;28;20044;-55
2023/12/10 08:59:49;;;;;;;6.78;1.00;;;8.70;99.90;;;;;;5094747;28;20398;-56
2023/12/10 09:02:15;;;;;;;3.80;0.67;;;8.70;99.90;;;;;;5094866;28;20126;-56
2023/12/10 09:04:40;;;;;;;5.90;1.00;;;8.70;99.90;;;;;;5094943;28;20048;-56
2023/12/10 09:07:06;;;;;;;5.20;0.67;;;8.60;99.90;;;;;;5094847;28;20043;-57
2023/12/10 09:09:32;;;;;;;6.07;0.60;;;8.70;99.90;;;;;;5094855;28;20502;-58
2023/12/10 09:11:59;;;;;;;3.75;0.43;;;8.60;99.90;;;;;;5093393;28;20051;-59
2023/12/10 09:14:25;;;;;;;;;;;8.60;99.90;;;;;;5095032;28;20040;-57
2023/12/10 09:16:51;;;;;;;3.00;0.77;;;8.60;99.90;;;;;;5093505;28;20351;-58
2023/12/10 09:19:17;;;;;;;9.52;1.58;;;8.60;99.90;;;;;;5094743;28;20067;-58
2023/12/10 09:21:46;;;;;;;6.70;0.87;;;8.60;99.90;;;;;;5093549;28;20463;-56
2023/12/10 09:24:11;;;;;;;9.82;1.08;;;8.60;99.90;;;;;;5094435;28;20066;-56
2023/12/10 09:26:37;;;;;;;8.53;1.50;;;8.60;99.90;;;;;;5094276;28;20482;-56
2023/12/10 09:29:03;;;;;;;14.83;1.23;;;8.60;99.90;;;;;;5094272;28;20083;-57
2023/12/10 09:31:29;;;;;;;8.93;1.00;;;8.60;99.90;;;;;;5094268;28;20048;-60
2023/12/10 09:33:54;;;;;;;4.50;1.20;;;8.60;99.90;;;;;;5094216;28;20478;-58
2023/12/10 09:36:20;;;;;;;8.60;1.23;;;8.60;99.90;;;;;;5094275;28;20040;-58
2023/12/10 09:38:46;;;;;;;9.37;1.73;;;8.60;99.90;;;;;;5094273;28;20471;-57
2023/12/10 09:41:11;;;;;;;4.50;0.80;;;8.60;99.90;;;;;;5093763;28;20090;-60
2023/12/10 09:43:37;;;;;;;5.07;0.60;;;8.60;99.90;;;;;;5094170;28;20056;-56
2023/12/10 09:46:03;;;;;;;8.77;1.23;;;8.60;99.90;;;;;;5093941;28;20052;-57
2023/12/10 09:48:30;;;;;;;7.70;1.17;;;8.50;99.90;;;;;;5094567;28;20040;-58
2023/12/10 09:50:56;;;;;;;7.03;0.93;;;8.50;99.90;;;;;;5094098;28;20050;-57
2023/12/10 09:53:22;;;;;;;13.10;1.10;;;8.50;99.90;;;;;;5094235;28;20047;-56
2023/12/10 09:55:48;;;;;;;11.13;1.13;;;8.50;99.90;;;;;;5094023;28;20059;-57
2023/12/10 09:58:14;;;;;;;12.73;1.38;;;8.50;99.90;;;;;;5094083;28;20109;-59
2023/12/10 10:00:40;;;;;;;6.47;0.97;;;8.50;99.90;;;;;;5093738;28;20043;-57
2023/12/10 10:03:06;;;;;;;8.50;1.25;;;8.50;99.90;;;;;;5093913;28;20056;-58
2023/12/10 10:05:35;;;;;;;4.97;0.43;;;8.60;99.90;;;;;;5093938;28;20044;-56
2023/12/10 10:08:00;;;;;;;15.82;2.25;;;8.60;99.90;;;;;;5092400;28;20048;-57
2023/12/10 10:10:26;;;;;;;6.50;1.07;;;8.50;99.90;;;;;;5093619;28;20051;-57
2023/12/10 10:12:55;;;;;;;6.93;0.80;;;8.50;99.90;;;;;;5093857;28;20044;-57
2023/12/10 10:15:30;;;;;;;6.78;0.90;;;8.50;99.90;;;;;;5093273;28;20455;-57
2023/12/10 10:17:57;;;;;;;7.55;0.70;;;8.50;99.90;;;;;;5091537;28;20084;-58
2023/12/10 10:20:24;;;;;;;8.32;1.38;;;8.50;99.90;;;;;;5092865;28;20048;-58
2023/12/10 10:22:50;;;;;;;;;;;8.50;99.90;;;;;;5092368;28;20044;-59
2023/12/10 10:25:16;;;;;;;5.18;1.00;;;8.50;99.90;;;;;;5093415;28;20313;-57
2023/12/10 10:27:41;;;;;;;5.43;1.23;;;8.50;99.90;;;;;;5092556;28;20048;-57
2023/12/10 10:30:08;;;;;;;7.00;1.23;;;8.50;99.90;;;;;;5093588;28;20097;-56
2023/12/10 10:32:34;;;;;;;5.90;1.13;;;8.50;99.90;;;;;;5093251;28;20123;-58
2023/12/10 10:35:04;;;;;;;5.65;1.80;;;8.50;99.90;;;;;;5093543;28;20479;-57
2023/12/10 10:37:30;;;;;;;7.82;1.08;;;8.50;99.90;;;;;;5093774;28;20097;-60
2023/12/10 10:39:56;;;;;;;5.00;1.40;;;8.50;99.90;;;;;;5092822;28;20048;-57
2023/12/10 10:42:22;;;;;;;7.30;1.15;;;8.50;99.90;;;;;;5093152;28;20055;-60
2023/12/10 10:44:48;;;;;;;11.53;1.00;;;8.50;99.90;;;;;;5093613;28;20044;-56
2023/12/10 10:47:18;;;;;;;7.60;1.10;;;8.50;99.90;;;;;;5092666;28;20044;-57
2023/12/10 10:49:47;;;;;;;8.38;1.30;;;8.60;99.90;;;;;;5093403;28;20174;-56
2023/12/10 10:52:18;;;;;;;9.18;2.20;;;8.60;99.90;;;;;;5093402;28;20040;-57
2023/12/10 10:54:45;;;;;;;14.05;5.15;;;8.60;99.90;;;;;;5097379;28;20044;-57
2023/12/10 10:57:11;;;;;;;9.05;1.77;;;8.60;99.90;;;;;;5097370;28;20044;-60
2023/12/10 10:59:36;;;;;;;6.60;1.50;;;8.60;99.90;;;;;;5097350;28;20396;-59
2023/12/10 11:02:05;;;;;;;10.73;1.83;;;8.60;99.90;;;;;;5096507;28;20044;-56
2023/12/10 11:04:38;;;;;;;9.23;1.80;;;8.60;99.90;;;;;;5097189;28;20052;-57
2023/12/10 11:07:08;;;;;;;13.57;3.47;;;8.60;99.90;;;;;;5097079;28;20055;-56
2023/12/10 11:09:57;;;;;;;9.80;2.17;;;8.60;99.90;;;;;;5096688;28;20094;-56
2023/12/10 11:12:48;;;;;;;7.05;1.38;;;8.60;99.90;;;;;;5096987;28;20047;-56
2023/12/10 11:15:18;;;;;;;9.32;1.60;;;8.60;99.90;;;;;;5095809;28;20054;-58
2023/12/10 11:17:50;;;;;;;6.95;1.17;;;8.60;99.90;;;;;;5094120;28;20063;-57
2023/12/10 11:20:29;;;;;;;8.00;2.30;;;8.70;99.90;;;;;;5095605;28;20054;-56
2023/12/10 11:22:55;;;;;;;11.85;2.08;;;8.70;99.90;;;;;;5096459;28;20055;-56
2023/12/10 11:25:21;;;;;;;5.60;1.30;;;8.70;99.90;;;;;;5097008;28;20067;-56
2023/12/10 11:27:47;;;;;;;14.68;2.00;;;8.70;99.90;;;;;;5095536;28;20039;-57
2023/12/10 11:30:13;;;;;;;8.13;2.03;;;8.70;99.90;;;;;;5096343;28;20047;-56
2023/12/10 11:32:38;;;;;;;6.85;1.20;;;8.70;99.90;;;;;;5096530;28;20040;-58
2023/12/10 11:35:04;;;;;;;14.30;2.00;;;8.70;99.90;;;;;;5095845;28;20070;-58
2023/12/10 11:37:30;;;;;;;9.63;1.50;;;8.80;99.90;;;;;;5096220;28;20094;-56
2023/12/10 11:39:56;;;;;;;9.47;1.13;;;8.80;99.90;;;;;;5096462;28;20044;-57
2023/12/10 11:42:21;;;;;;;7.70;1.77;;;8.80;99.90;;;;;;5096505;28;20079;-57
2023/12/10 11:44:47;;;;;;;12.27;1.60;;;8.80;99.90;;;;;;5096229;28;20365;-56
2023/12/10 11:47:13;;;;;;;11.40;1.23;;;8.80;99.90;;;;;;5096199;28;20047;-56
2023/12/10 11:49:39;;;;;;;9.52;2.25;;;8.80;99.90;;;;;;5096311;28;20040;-56
2023/12/10 11:52:05;;;;;;;13.73;2.23;;;8.80;99.90;;;;;;5096289;28;20483;-56
2023/12/10 11:54:30;;;;;;;14.00;1.80;;;8.80;99.90;;;;;;5096143;28;20048;-56
2023/12/10 11:56:57;;;;;;;7.53;2.00;;;8.80;99.90;;;;;;5096096;28;20548;-57
2023/12/10 11:59:23;;;;;;;;;;;8.80;99.90;;;;;;5096422;28;20062;-56
2023/12/10 12:01:50;;;;;;;14.25;1.92;;;8.80;99.90;;;;;;5096168;28;20375;-57
2023/12/10 12:04:16;;;;;;;10.48;1.83;;;8.70;99.90;;;;;;5095573;28;20110;-57
2023/12/10 12:06:43;;;;;;;15.43;1.77;;;8.80;99.90;;;;;;5094883;28;20044;-57
2023/12/10 12:09:14;;;;;;;19.60;2.15;;;8.80;99.90;;;;;;5094607;28;20056;-57
2023/12/10 12:11:40;;;;;;;8.00;1.38;;;8.70;99.90;;;;;;5095837;28;20112;-56
2023/12/10 12:14:15;;;;;;;11.57;2.07;;;8.70;99.90;;;;;;5095664;28;20135;-56
2023/12/10 12:16:41;;;;;;;10.23;1.88;;;8.70;99.90;;;;;;5095923;28;20044;-57
2023/12/10 12:19:08;;;;;;;14.63;2.00;;;8.80;99.90;;;;;;5096107;28;20054;-56
2023/12/10 12:21:33;;;;;;;9.90;1.40;;;8.70;99.90;;;;;;5094650;28;20051;-57
2023/12/10 12:23:59;;;;;;;7.47;1.30;;;8.70;99.90;;;;;;5095520;28;20048;-58
2023/12/10 12:26:25;;;;;;;10.30;1.67;;;8.80;99.90;;;;;;5095526;28;20407;-57
2023/12/10 12:28:51;;;;;;;15.80;3.67;;;8.80;99.90;;;;;;5095179;28;20127;-57
2023/12/10 12:31:16;;;;;;;12.77;2.47;;;8.80;99.90;;;;;;5095447;28;20123;-59
2023/12/10 12:33:42;;;;;;;10.90;1.90;;;8.80;99.90;;;;;;5095535;28;20044;-57
2023/12/10 12:36:08;;;;;;;16.90;2.60;;;8.80;99.90;;;;;;5095342;28;20066;-58
2023/12/10 12:38:34;;;;;;;8.88;1.88;;;8.80;99.90;;;;;;5111634;28;20048;-57
2023/12/10 12:40:59;;;;;;;8.00;2.03;;;8.80;99.90;;;;;;5094490;28;20475;-59
2023/12/10 12:43:25;;;;;;;12.80;1.87;;;8.80;99.90;;;;;;5095052;28;20056;-57
2023/12/10 12:45:51;;;;;;;13.60;1.67;;;8.80;99.90;;;;;;5095216;28;20040;-57
2023/12/10 12:48:16;;;;;;;10.70;1.63;;;8.80;99.90;;;;;;5095285;28;20395;-60
2023/12/10 12:50:42;;;;;;;12.67;2.40;;;8.80;99.90;;;;;;5095055;28;20052;-57